Time;durP1;ratioP1;P1;durP2;ratioP2;P2;SDS_P1;SDS_P2;PMS_P1;PMS_P2;Temp;Humidity;BMP_temperature;BMP_pressure;BME280_temperature;BME280_humidity;BME280_pressure;Samples;Min_cycle;Max_cycle;Signal;HPM_P1;HPM_P2
2021/11/29 00:01:33;;;;;;;24.05;13.68;;;8.20;99.90;;;;;;6133073;23;20238;-91
2021/11/29 00:03:59;;;;;;;20.30;13.30;;;8.20;99.90;;;;;;6131745;23;20155;-91
2021/11/29 00:06:25;;;;;;;23.57;14.40;;;8.20;99.90;;;;;;6157570;23;20182;-91
2021/11/29 00:08:51;;;;;;;22.73;15.68;;;8.20;99.90;;;;;;6132015;23;20430;-90
2021/11/29 00:11:17;;;;;;;23.63;14.20;;;8.20;99.90;;;;;;6132151;23;20629;-91
2021/11/29 00:13:43;;;;;;;23.27;14.30;;;8.20;99.90;;;;;;6158699;23;20479;-90
2021/11/29 00:16:09;;;;;;;23.37;15.23;;;8.20;99.90;;;;;;6157872;23;20282;-91
2021/11/29 00:18:36;;;;;;;22.80;14.33;;;8.20;99.90;;;;;;6131430;23;20903;-91
2021/11/29 00:21:02;;;;;;;25.25;14.43;;;8.20;99.90;;;;;;6157149;23;20409;-90
2021/11/29 00:23:28;;;;;;;23.75;15.20;;;8.20;99.90;;;;;;6132581;23;20155;-90
2021/11/29 00:25:54;;;;;;;24.70;15.40;;;8.20;99.90;;;;;;6161270;23;20206;-91
2021/11/29 00:28:19;;;;;;;24.37;14.50;;;8.20;99.90;;;;;;6136358;23;20162;-92
2021/11/29 00:30:46;;;;;;;21.70;15.27;;;8.20;99.90;;;;;;6134317;23;20425;-91
2021/11/29 00:33:12;;;;;;;24.92;14.75;;;8.20;99.90;;;;;;6158265;23;20150;-91
2021/11/29 00:35:38;;;;;;;20.58;13.65;;;8.20;99.90;;;;;;6131524;23;20294;-91
2021/11/29 00:38:09;;;;;;;23.53;14.40;;;8.10;99.90;;;;;;6137586;23;20198;-91
2021/11/29 00:40:35;;;;;;;24.13;14.32;;;8.10;99.90;;;;;;6190148;23;20416;-90
2021/11/29 00:43:01;;;;;;;24.88;15.07;;;8.10;99.90;;;;;;6212668;23;20202;-90
2021/11/29 00:45:27;;;;;;;23.27;14.73;;;8.10;99.90;;;;;;6190050;23;20195;-91
2021/11/29 00:47:53;;;;;;;28.40;15.85;;;8.10;99.90;;;;;;6189094;23;20666;-91
2021/11/29 00:50:20;;;;;;;25.70;14.73;;;8.10;99.90;;;;;;6189541;23;20214;-92
2021/11/29 00:52:47;;;;;;;28.77;16.52;;;8.00;99.90;;;;;;6190212;23;20229;-92
2021/11/29 00:55:14;;;;;;;21.95;14.05;;;8.00;99.90;;;;;;6187592;23;20202;-91
2021/11/29 00:57:40;;;;;;;21.80;15.73;;;8.00;99.90;;;;;;6187692;23;20214;-92
2021/11/29 01:00:17;;;;;;;23.73;15.33;;;7.90;99.90;;;;;;6187492;23;20186;-91
2021/11/29 01:02:43;;;;;;;31.85;17.42;;;7.90;99.90;;;;;;6187584;23;20383;-91
2021/11/29 01:05:10;;;;;;;30.90;17.53;;;7.80;99.90;;;;;;6189228;23;20199;-92
2021/11/29 01:07:36;;;;;;;32.97;17.88;;;7.80;99.90;;;;;;6188571;23;20355;-90
2021/11/29 01:10:04;;;;;;;30.17;19.27;;;7.80;99.90;;;;;;6189180;23;20228;-91
2021/11/29 01:12:30;;;;;;;28.45;17.92;;;7.70;99.90;;;;;;6188830;23;20146;-91
2021/11/29 01:14:56;;;;;;;26.23;17.83;;;7.60;99.90;;;;;;6189092;23;20225;-90
2021/11/29 01:17:22;;;;;;;28.40;18.75;;;7.50;99.90;;;;;;6190287;23;20151;-90
2021/11/29 01:19:48;;;;;;;31.67;17.43;;;7.50;99.90;;;;;;6190496;23;20189;-90
2021/11/29 01:22:14;;;;;;;24.87;18.20;;;7.40;99.90;;;;;;6190773;23;20178;-90
2021/11/29 01:24:39;;;;;;;22.57;16.70;;;7.40;99.90;;;;;;6191483;23;20400;-91
2021/11/29 01:27:06;;;;;;;31.07;19.90;;;7.30;99.90;;;;;;6212119;23;20339;-91
2021/11/29 01:29:32;;;;;;;24.13;18.98;;;7.30;99.90;;;;;;6204860;23;20371;-92
2021/11/29 01:31:57;;;;;;;25.52;17.45;;;7.20;99.90;;;;;;6203650;23;20194;-90
2021/11/29 01:34:23;;;;;;;26.53;17.57;;;7.10;99.90;;;;;;6212172;23;20198;-91
2021/11/29 01:36:49;;;;;;;25.20;17.50;;;7.00;99.90;;;;;;6209193;23;20518;-91
2021/11/29 01:39:15;;;;;;;25.98;17.17;;;7.00;99.90;;;;;;6194279;23;20414;-91
2021/11/29 01:41:43;;;;;;;22.80;16.60;;;6.90;99.90;;;;;;6187374;23;20257;-91
2021/11/29 01:44:09;;;;;;;25.30;16.98;;;6.80;99.90;;;;;;6189100;23;20167;-90
2021/11/29 01:46:38;;;;;;;22.17;15.52;;;6.70;99.90;;;;;;6187454;23;20186;-90
2021/11/29 01:49:04;;;;;;;22.38;15.48;;;6.60;99.90;;;;;;6187744;23;20159;-90
2021/11/29 01:51:31;;;;;;;20.95;14.43;;;6.50;99.90;;;;;;6187005;23;20171;-90
2021/11/29 01:53:56;;;;;;;22.60;14.65;;;6.50;99.90;;;;;;6186794;23;20155;-92
2021/11/29 01:56:22;;;;;;;19.90;15.40;;;6.40;99.90;;;;;;6187815;23;20189;-92
2021/11/29 01:58:48;;;;;;;19.30;14.33;;;6.30;99.90;;;;;;6186889;23;20380;-90
2021/11/29 02:01:19;;;;;;;19.92;14.48;;;6.30;99.90;;;;;;6187024;23;20390;-90
2021/11/29 02:03:51;;;;;;;20.88;14.68;;;6.20;99.90;;;;;;6187156;23;20151;-89
2021/11/29 02:06:17;;;;;;;22.33;16.00;;;6.20;99.90;;;;;;6187461;23;20241;-90
2021/11/29 02:08:44;;;;;;;22.88;14.88;;;6.10;99.90;;;;;;6191418;23;20142;-91
2021/11/29 02:11:10;;;;;;;22.13;15.10;;;6.10;99.90;;;;;;6186632;23;20198;-91
2021/11/29 02:13:37;;;;;;;22.07;16.00;;;6.10;99.90;;;;;;6187315;23;20627;-90
2021/11/29 02:16:04;;;;;;;22.25;16.35;;;6.10;99.90;;;;;;6188522;23;20450;-91
2021/11/29 02:18:32;;;;;;;26.67;16.15;;;6.10;99.90;;;;;;6188130;23;20580;-91
2021/11/29 02:21:25;;;;;;;26.95;16.98;;;6.00;99.90;;;;;;6188444;23;20182;-89
2021/11/29 02:23:56;;;;;;;20.98;15.27;;;6.00;99.90;;;;;;6186997;23;20155;-91
2021/11/29 02:26:27;;;;;;;22.10;15.13;;;6.00;99.90;;;;;;6187382;23;20174;-91
2021/11/29 02:28:57;;;;;;;22.42;14.65;;;6.00;99.90;;;;;;6186954;23;20162;-92
2021/11/29 02:31:26;;;;;;;22.98;15.07;;;5.90;99.90;;;;;;6188313;23;20245;-90
2021/11/29 02:33:52;;;;;;;20.90;14.60;;;6.00;99.90;;;;;;6188248;23;20586;-91
2021/11/29 02:36:17;;;;;;;20.40;14.60;;;5.90;99.90;;;;;;6186896;23;20226;-90
2021/11/29 02:38:44;;;;;;;19.60;15.53;;;5.90;99.90;;;;;;6187361;23;20402;-91
2021/11/29 02:41:10;;;;;;;23.42;15.43;;;5.90;99.90;;;;;;6201038;23;20615;-91
2021/11/29 02:43:35;;;;;;;22.17;15.33;;;5.90;99.90;;;;;;6189116;23;20208;-91
2021/11/29 02:46:01;;;;;;;26.67;15.90;;;5.90;99.90;;;;;;6193499;23;20382;-91
2021/11/29 02:48:43;;;;;;;24.27;17.07;;;5.90;99.90;;;;;;6191006;23;20380;-91
2021/11/29 02:51:33;;;;;;;21.77;15.57;;;5.90;99.90;;;;;;6189069;23;20425;-91
2021/11/29 02:54:10;;;;;;;28.60;17.17;;;5.80;99.90;;;;;;6187602;23;20157;-91
2021/11/29 02:56:38;;;;;;;25.13;15.38;;;5.80;99.90;;;;;;6190891;23;20174;-90
2021/11/29 02:59:08;;;;;;;25.73;15.68;;;5.80;99.90;;;;;;6186443;23;20158;-91
2021/11/29 03:01:35;;;;;;;27.30;16.88;;;5.80;99.90;;;;;;6186304;23;20179;-91
2021/11/29 03:04:04;;;;;;;25.42;17.63;;;5.80;99.90;;;;;;6186829;23;20213;-90
2021/11/29 03:06:30;;;;;;;21.88;15.77;;;5.80;99.90;;;;;;6187706;23;20178;-91
2021/11/29 03:08:56;;;;;;;22.48;16.02;;;5.80;99.90;;;;;;6188168;23;20486;-91
2021/11/29 03:11:22;;;;;;;24.60;15.50;;;5.80;99.90;;;;;;6187741;23;20171;-90
2021/11/29 03:13:49;;;;;;;23.00;16.42;;;5.80;99.90;;;;;;6186456;23;20181;-90
2021/11/29 03:16:14;;;;;;;26.83;16.27;;;5.80;99.90;;;;;;6186355;23;20194;-90
2021/11/29 03:18:43;;;;;;;23.57;15.97;;;5.80;99.90;;;;;;6187656;23;20147;-91
2021/11/29 03:21:11;;;;;;;25.00;16.67;;;5.80;99.90;;;;;;6189912;23;20386;-91
2021/11/29 03:23:37;;;;;;;22.58;16.15;;;5.70;99.90;;;;;;6187455;23;20153;-90
2021/11/29 03:26:14;;;;;;;25.70;15.40;;;5.70;99.90;;;;;;6188192;23;20509;-90
2021/11/29 03:28:41;;;;;;;22.23;15.60;;;5.70;99.90;;;;;;6187452;23;20219;-90
2021/11/29 03:31:09;;;;;;;22.60;15.55;;;5.70;99.90;;;;;;6186736;23;20253;-92
2021/11/29 03:33:36;;;;;;;26.08;17.98;;;5.70;99.90;;;;;;6188279;23;20158;-90
2021/11/29 03:36:03;;;;;;;23.85;15.40;;;5.70;99.90;;;;;;6188996;23;20256;-91
2021/11/29 03:38:29;;;;;;;25.77;17.30;;;5.70;99.90;;;;;;6186138;23;20194;-90
2021/11/29 03:40:56;;;;;;;24.90;16.27;;;5.70;99.90;;;;;;6187637;23;20194;-92
2021/11/29 03:43:22;;;;;;;22.60;15.10;;;5.70;99.90;;;;;;6204267;23;20154;-91
2021/11/29 03:45:48;;;;;;;22.55;15.38;;;5.70;99.90;;;;;;6191289;23;20187;-90
2021/11/29 03:48:14;;;;;;;22.65;15.35;;;5.70;99.90;;;;;;6186166;23;20155;-90
2021/11/29 03:50:40;;;;;;;23.00;15.80;;;5.70;99.90;;;;;;6189562;23;20193;-90
2021/11/29 03:53:06;;;;;;;20.13;14.10;;;5.70;99.90;;;;;;6187706;23;20343;-90
2021/11/29 03:55:32;;;;;;;20.10;13.53;;;5.70;99.90;;;;;;6185919;23;20238;-90
2021/11/29 03:57:57;;;;;;;20.40;15.00;;;5.70;99.90;;;;;;6186282;23;20401;-90
2021/11/29 04:00:23;;;;;;;25.13;16.53;;;5.70;99.90;;;;;;6187540;23;20174;-92
2021/11/29 04:02:49;;;;;;;20.83;16.00;;;5.70;99.90;;;;;;6185994;23;20154;-91
2021/11/29 04:05:15;;;;;;;20.88;14.80;;;5.70;99.90;;;;;;6186864;23;20420;-91
2021/11/29 04:07:42;;;;;;;21.60;15.43;;;5.70;99.90;;;;;;6186255;23;20221;-92
2021/11/29 04:10:08;;;;;;;20.85;15.48;;;5.70;99.90;;;;;;6186185;23;20190;-91
2021/11/29 04:12:36;;;;;;;22.20;15.27;;;5.60;99.90;;;;;;6185960;23;20155;-90
2021/11/29 04:15:02;;;;;;;22.35;15.55;;;5.60;99.90;;;;;;6186117;23;20230;-90
2021/11/29 04:17:28;;;;;;;21.48;15.13;;;5.60;99.90;;;;;;6189771;23;20232;-90
2021/11/29 04:19:54;;;;;;;24.73;14.90;;;5.60;99.90;;;;;;6189981;23;20620;-91
2021/11/29 04:22:20;;;;;;;20.87;15.40;;;5.50;99.90;;;;;;6188232;23;20417;-91
2021/11/29 04:24:47;;;;;;;19.88;14.43;;;5.50;99.90;;;;;;6188049;23;20466;-90
2021/11/29 04:27:13;;;;;;;20.75;14.25;;;5.50;99.90;;;;;;6189377;23;20151;-89
2021/11/29 04:29:43;;;;;;;19.08;14.20;;;5.50;99.90;;;;;;6196999;23;20159;-89
2021/11/29 04:32:09;;;;;;;21.55;14.70;;;5.50;99.90;;;;;;6198949;23;20183;-90
2021/11/29 04:34:36;;;;;;;20.45;14.48;;;5.50;99.90;;;;;;6189382;23;20196;-91
2021/11/29 04:37:03;;;;;;;20.70;14.15;;;5.50;99.90;;;;;;6187717;23;20155;-91
2021/11/29 04:39:31;;;;;;;19.67;14.93;;;5.50;99.90;;;;;;6187306;23;20234;-91
2021/11/29 04:41:56;;;;;;;22.33;16.25;;;5.50;99.90;;;;;;6189997;23;20147;-89
2021/11/29 04:44:22;;;;;;;26.10;17.00;;;5.50;99.90;;;;;;6190848;23;20158;-91
2021/11/29 04:46:48;;;;;;;24.30;16.97;;;5.50;99.90;;;;;;6190844;23;20481;-91
2021/11/29 04:49:14;;;;;;;26.97;18.67;;;5.40;99.90;;;;;;6187795;23;20612;-91
2021/11/29 04:51:40;;;;;;;25.80;17.07;;;5.40;99.90;;;;;;6187981;23;20918;-91
2021/11/29 04:54:09;;;;;;;23.92;16.40;;;5.40;99.90;;;;;;6187503;23;20355;-91
2021/11/29 04:56:34;;;;;;;24.50;16.20;;;5.40;99.90;;;;;;6187687;23;20261;-90
2021/11/29 04:59:00;;;;;;;22.10;15.50;;;5.40;99.90;;;;;;6190443;23;20166;-90
2021/11/29 05:01:26;;;;;;;22.13;15.53;;;5.40;99.90;;;;;;6204753;23;20400;-91
2021/11/29 05:03:52;;;;;;;22.83;15.00;;;5.40;99.90;;;;;;6190168;23;20382;-90
2021/11/29 05:06:19;;;;;;;24.67;15.27;;;5.40;99.90;;;;;;6187452;23;20449;-90
2021/11/29 05:08:45;;;;;;;22.80;16.30;;;5.30;99.90;;;;;;6187119;23;20389;-90
2021/11/29 05:11:12;;;;;;;23.35;16.13;;;5.30;99.90;;;;;;6189075;23;20182;-91
2021/11/29 05:13:38;;;;;;;22.63;14.85;;;5.30;99.90;;;;;;6189117;23;20151;-90
2021/11/29 05:16:04;;;;;;;23.65;15.07;;;5.20;99.90;;;;;;6191259;23;20257;-91
2021/11/29 05:18:30;;;;;;;30.08;19.88;;;5.20;99.90;;;;;;6187755;23;20155;-89
2021/11/29 05:20:56;;;;;;;31.17;18.27;;;5.20;99.90;;;;;;6187499;23;20191;-90
2021/11/29 05:23:22;;;;;;;25.60;16.40;;;5.20;99.90;;;;;;6187521;23;20578;-89
2021/11/29 05:25:48;;;;;;;30.17;20.02;;;5.20;99.90;;;;;;6187395;23;20183;-90
2021/11/29 05:28:15;;;;;;;30.67;19.27;;;5.20;99.90;;;;;;6191446;23;20178;-90
2021/11/29 05:30:40;;;;;;;24.02;17.08;;;5.20;99.90;;;;;;6188696;23;20178;-89
2021/11/29 05:33:07;;;;;;;23.40;16.07;;;5.20;99.90;;;;;;6185899;23;20228;-90
2021/11/29 05:35:32;;;;;;;24.40;15.57;;;5.10;99.90;;;;;;6185351;23;20504;-91
2021/11/29 05:37:59;;;;;;;24.97;17.10;;;5.10;99.90;;;;;;6183823;23;20186;-90
2021/11/29 05:40:25;;;;;;;27.13;16.55;;;5.10;99.90;;;;;;6132135;23;20187;-90
2021/11/29 05:42:51;;;;;;;24.70;15.97;;;5.10;99.90;;;;;;6159478;23;20158;-90
2021/11/29 05:45:17;;;;;;;22.00;16.10;;;5.00;99.90;;;;;;6132111;23;20854;-89
2021/11/29 05:47:43;;;;;;;23.77;16.98;;;5.00;99.90;;;;;;6132506;23;20179;-92
2021/11/29 05:50:10;;;;;;;22.77;14.97;;;5.00;99.90;;;;;;6130945;23;20201;-89
2021/11/29 05:52:37;;;;;;;25.77;15.52;;;5.00;99.90;;;;;;6132526;23;20385;-90
2021/11/29 05:55:05;;;;;;;24.42;15.57;;;5.00;99.90;;;;;;6157972;23;20201;-90
2021/11/29 05:57:31;;;;;;;25.17;16.17;;;5.00;99.90;;;;;;6130931;23;20155;-91
2021/11/29 05:59:57;;;;;;;23.03;16.57;;;5.10;99.90;;;;;;6145691;23;20187;-91
2021/11/29 06:02:22;;;;;;;20.10;14.17;;;5.10;99.90;;;;;;6155377;23;20360;-90
2021/11/29 06:04:49;;;;;;;20.43;15.20;;;5.10;99.90;;;;;;6156257;23;20404;-89
2021/11/29 06:07:14;;;;;;;22.48;16.23;;;5.10;99.90;;;;;;6138078;23;20408;-91
2021/11/29 06:09:40;;;;;;;21.70;15.10;;;5.10;99.90;;;;;;6130938;23;20167;-92
2021/11/29 06:12:06;;;;;;;26.90;15.93;;;5.20;99.90;;;;;;6157297;23;20209;-91
2021/11/29 06:14:33;;;;;;;23.63;15.48;;;5.20;99.90;;;;;;6131607;23;20535;-92
2021/11/29 06:16:58;;;;;;;24.30;16.48;;;5.20;99.90;;;;;;6133197;23;20191;-90
2021/11/29 06:19:24;;;;;;;24.20;16.80;;;5.20;99.90;;;;;;6131857;23;20167;-91
2021/11/29 06:21:50;;;;;;;23.37;16.03;;;5.20;99.90;;;;;;6132357;23;20883;-92
2021/11/29 06:24:16;;;;;;;23.30;16.43;;;5.20;99.90;;;;;;6131447;23;20409;-91
2021/11/29 06:26:42;;;;;;;28.67;20.10;;;5.20;99.90;;;;;;6156896;23;20378;-91
2021/11/29 06:29:08;;;;;;;21.87;15.10;;;5.10;99.90;;;;;;6130233;23;20375;-90
2021/11/29 06:31:34;;;;;;;23.00;15.67;;;5.10;99.90;;;;;;6133024;23;20376;-90
2021/11/29 06:34:00;;;;;;;24.27;14.70;;;5.10;99.90;;;;;;6130235;23;20942;-92
2021/11/29 06:36:28;;;;;;;17.87;13.00;;;5.10;99.90;;;;;;6130267;23;20504;-91
2021/11/29 06:38:56;;;;;;;22.38;15.73;;;5.10;99.90;;;;;;6154881;23;20431;-89
2021/11/29 06:41:24;;;;;;;22.08;15.32;;;5.10;99.90;;;;;;6184103;23;20190;-90
2021/11/29 06:43:50;;;;;;;25.25;17.05;;;5.10;99.90;;;;;;6188683;23;20161;-91
2021/11/29 06:46:16;;;;;;;22.95;15.55;;;5.20;99.90;;;;;;6184707;23;20182;-91
2021/11/29 06:48:43;;;;;;;27.83;17.10;;;5.20;99.90;;;;;;6183814;23;20154;-92
2021/11/29 06:51:09;;;;;;;23.73;14.60;;;5.20;99.90;;;;;;6182297;23;20632;-90
2021/11/29 06:53:35;;;;;;;19.27;13.90;;;5.20;99.90;;;;;;6181829;23;20489;-91
2021/11/29 06:56:02;;;;;;;19.55;14.02;;;5.20;99.90;;;;;;6182881;23;20199;-89
2021/11/29 06:58:28;;;;;;;19.70;13.40;;;5.20;99.90;;;;;;6183863;23;20180;-90
2021/11/29 07:00:55;;;;;;;21.20;12.85;;;5.20;99.90;;;;;;6191060;23;20191;-90
2021/11/29 07:03:21;;;;;;;21.30;13.75;;;5.20;99.90;;;;;;6201017;23;20139;-89
2021/11/29 07:05:50;;;;;;;20.63;15.07;;;5.20;99.90;;;;;;6186859;23;20179;-90
2021/11/29 07:08:16;;;;;;;20.70;13.90;;;5.20;99.90;;;;;;6188337;23;20162;-90
2021/11/29 07:10:42;;;;;;;20.40;13.65;;;5.20;99.90;;;;;;6187911;23;20213;-91
2021/11/29 07:13:10;;;;;;;16.57;12.70;;;5.20;99.90;;;;;;6187935;23;20620;-90
2021/11/29 07:15:37;;;;;;;19.92;12.98;;;5.20;99.90;;;;;;6186618;23;20448;-91
2021/11/29 07:18:04;;;;;;;20.98;13.27;;;5.20;99.90;;;;;;6185050;23;20170;-91
2021/11/29 07:20:30;;;;;;;18.92;13.02;;;5.20;99.90;;;;;;6185756;23;20689;-92
2021/11/29 07:22:56;;;;;;;21.90;14.10;;;5.20;99.90;;;;;;6185936;23;20250;-92
2021/11/29 07:25:23;;;;;;;22.33;15.13;;;5.20;99.90;;;;;;6185253;23;20175;-90
2021/11/29 07:27:49;;;;;;;20.73;13.88;;;5.20;99.90;;;;;;6181662;23;20297;-90
2021/11/29 07:30:17;;;;;;;25.07;16.50;;;5.30;99.90;;;;;;6183513;23;20222;-91
2021/11/29 07:32:43;;;;;;;19.95;13.60;;;5.30;99.90;;;;;;6184386;23;20740;-91
2021/11/29 07:35:10;;;;;;;19.33;12.93;;;5.30;99.90;;;;;;6184868;23;20260;-90
2021/11/29 07:37:36;;;;;;;21.55;15.05;;;5.30;99.90;;;;;;6185897;23;20431;-91
2021/11/29 07:40:05;;;;;;;20.27;14.90;;;5.40;99.90;;;;;;6185510;23;20277;-90
2021/11/29 07:42:31;;;;;;;20.50;14.52;;;5.40;99.90;;;;;;6204168;23;20166;-90
2021/11/29 07:44:59;;;;;;;21.25;14.38;;;5.40;99.90;;;;;;6178772;23;20186;-91
2021/11/29 07:47:25;;;;;;;20.25;13.55;;;5.50;99.90;;;;;;6184666;23;20154;-92
2021/11/29 07:49:52;;;;;;;20.92;14.48;;;5.60;99.90;;;;;;6183016;23;20225;-90
2021/11/29 07:52:19;;;;;;;16.38;12.52;;;5.90;99.90;;;;;;6167536;23;20520;-91
2021/11/29 07:54:45;;;;;;;19.00;13.60;;;6.80;99.90;;;;;;6166682;23;20309;-91
2021/11/29 07:57:13;;;;;;;17.83;12.60;;;7.70;99.90;;;;;;6163771;23;20234;-91
2021/11/29 07:59:39;;;;;;;19.23;12.68;;;8.50;99.90;;;;;;6166276;23;20431;-89
2021/11/29 08:02:05;;;;;;;14.93;12.20;;;9.10;99.90;;;;;;6164118;23;20261;-91
2021/11/29 08:04:32;;;;;;;14.82;11.38;;;9.30;99.90;;;;;;6168238;23;20554;-92
2021/11/29 08:06:57;;;;;;;12.88;11.48;;;9.50;99.90;;;;;;6163891;23;20670;-90
2021/11/29 08:09:23;;;;;;;17.10;11.83;;;9.40;99.90;;;;;;6165406;23;20171;-89
2021/11/29 08:11:49;;;;;;;16.20;12.00;;;9.40;99.90;;;;;;6165467;23;20236;-91
2021/11/29 08:14:15;;;;;;;13.97;11.30;;;9.20;99.90;;;;;;6166696;23;20731;-91
2021/11/29 08:16:41;;;;;;;15.37;12.17;;;8.80;99.90;;;;;;6172671;23;20392;-90
2021/11/29 08:19:07;;;;;;;16.73;12.10;;;8.50;99.90;;;;;;6169963;23;20779;-90
2021/11/29 08:21:32;;;;;;;17.07;12.40;;;8.20;99.90;;;;;;6168390;23;20407;-91
2021/11/29 08:23:58;;;;;;;15.60;11.73;;;7.90;99.90;;;;;;6169383;23;20388;-91
2021/11/29 08:26:26;;;;;;;18.77;12.80;;;7.60;99.90;;;;;;6168494;23;20461;-91
2021/11/29 08:28:52;;;;;;;15.75;12.32;;;7.30;99.90;;;;;;6172601;23;20418;-90
2021/11/29 08:31:18;;;;;;;17.48;12.40;;;7.10;99.90;;;;;;6168188;23;20182;-91
2021/11/29 08:33:44;;;;;;;18.23;12.80;;;6.90;99.90;;;;;;6175037;23;20174;-91
2021/11/29 08:36:10;;;;;;;17.83;12.00;;;6.80;99.90;;;;;;6191781;23;20483;-90
2021/11/29 08:38:36;;;;;;;18.15;13.50;;;6.70;99.90;;;;;;6169840;23;20392;-91
2021/11/29 08:41:02;;;;;;;20.50;13.40;;;6.50;99.90;;;;;;6143531;23;20187;-91
2021/11/29 08:43:29;;;;;;;20.27;14.07;;;6.50;99.90;;;;;;6142223;23;20701;-88
2021/11/29 08:45:55;;;;;;;19.58;14.25;;;6.40;99.90;;;;;;6118275;23;20364;-91
2021/11/29 08:48:22;;;;;;;19.58;14.02;;;6.40;99.90;;;;;;6130033;23;20148;-90
2021/11/29 08:50:52;;;;;;;17.60;13.32;;;6.40;99.90;;;;;;6129567;23;20190;-90
2021/11/29 08:53:21;;;;;;;20.55;15.75;;;6.40;99.90;;;;;;6154015;23;20531;-90
2021/11/29 08:55:48;;;;;;;23.27;15.43;;;6.40;99.90;;;;;;6155320;23;20199;-91
2021/11/29 08:58:15;;;;;;;18.65;13.75;;;6.40;99.90;;;;;;6134002;23;20226;-90
2021/11/29 09:00:45;;;;;;;22.33;16.40;;;6.30;99.90;;;;;;6130706;23;20234;-90
2021/11/29 09:03:11;;;;;;;21.70;17.33;;;6.30;99.90;;;;;;6130895;23;20526;-91
2021/11/29 09:05:41;;;;;;;22.25;14.95;;;6.20;99.90;;;;;;6157245;23;20179;-90
2021/11/29 09:08:07;;;;;;;17.50;11.85;;;6.10;99.90;;;;;;6129496;23;20166;-90
2021/11/29 09:10:34;;;;;;;20.02;13.75;;;6.00;99.90;;;;;;6165911;23;20536;-90
2021/11/29 09:13:00;;;;;;;21.85;15.10;;;6.00;99.90;;;;;;6142765;23;20491;-91
2021/11/29 09:15:26;;;;;;;20.20;14.07;;;5.90;99.90;;;;;;6145996;23;20210;-89
2021/11/29 09:17:52;;;;;;;22.92;14.55;;;5.80;99.90;;;;;;6170321;23;20202;-89
2021/11/29 09:20:21;;;;;;;17.48;13.90;;;5.80;99.90;;;;;;6139024;23;20198;-91
2021/11/29 09:22:48;;;;;;;17.20;13.55;;;5.80;99.90;;;;;;6156394;23;20223;-91
2021/11/29 09:25:15;;;;;;;21.08;14.52;;;5.80;99.90;;;;;;6134739;23;20187;-91
2021/11/29 09:27:42;;;;;;;17.88;14.07;;;5.70;99.90;;;;;;6131956;23;20532;-92
2021/11/29 09:30:11;;;;;;;19.15;12.85;;;5.80;99.90;;;;;;6156442;23;20269;-89
2021/11/29 09:32:38;;;;;;;19.27;14.57;;;5.80;99.90;;;;;;6131174;23;20155;-89
2021/11/29 09:35:14;;;;;;;21.70;15.20;;;5.80;99.90;;;;;;6130794;23;20210;-89
2021/11/29 09:37:42;;;;;;;22.13;14.35;;;5.80;99.90;;;;;;6154929;23;20147;-90
2021/11/29 09:40:14;;;;;;;21.67;15.90;;;5.80;99.90;;;;;;6186005;23;20186;-90
2021/11/29 09:42:41;;;;;;;18.48;12.70;;;5.80;99.90;;;;;;6157856;23;20205;-90
2021/11/29 09:45:09;;;;;;;22.25;14.60;;;5.80;99.90;;;;;;6157593;23;20188;-91
2021/11/29 09:47:35;;;;;;;19.67;14.55;;;5.80;99.90;;;;;;6155489;23;20492;-91
2021/11/29 09:50:02;;;;;;;21.92;13.07;;;5.70;99.90;;;;;;6185447;23;20179;-89
2021/11/29 09:52:29;;;;;;;19.80;13.73;;;5.70;99.90;;;;;;6161853;23;20159;-89
2021/11/29 09:54:55;;;;;;;22.08;14.50;;;5.70;99.90;;;;;;6186299;23;20298;-89
2021/11/29 09:57:22;;;;;;;20.37;13.40;;;5.70;99.90;;;;;;6159070;23;20193;-92
2021/11/29 09:59:48;;;;;;;18.35;12.45;;;5.70;99.90;;;;;;6183886;23;20470;-92
2021/11/29 10:02:15;;;;;;;21.52;12.82;;;5.70;99.90;;;;;;6157965;23;20165;-91
2021/11/29 10:04:50;;;;;;;20.70;13.70;;;5.70;99.90;;;;;;6158517;23;20174;-92
2021/11/29 10:07:38;;;;;;;20.38;13.38;;;5.70;99.90;;;;;;6176334;23;20166;-91
2021/11/29 10:10:19;;;;;;;21.58;13.20;;;5.70;99.90;;;;;;6159177;23;20186;-91
2021/11/29 10:12:47;;;;;;;18.35;13.77;;;5.70;99.90;;;;;;6157933;23;20147;-91
2021/11/29 10:15:19;;;;;;;23.02;14.70;;;5.70;99.90;;;;;;6160513;23;20208;-90
2021/11/29 10:17:47;;;;;;;18.05;13.60;;;5.70;99.90;;;;;;6162507;23;20218;-89
2021/11/29 10:20:13;;;;;;;20.20;13.38;;;5.60;99.90;;;;;;6163487;23;20774;-92
2021/11/29 10:22:41;;;;;;;16.75;13.48;;;5.60;99.90;;;;;;6189383;23;20147;-91
2021/11/29 10:25:18;;;;;;;17.50;12.60;;;5.60;99.90;;;;;;6159947;23;20193;-92
2021/11/29 10:27:45;;;;;;;18.15;12.82;;;5.50;99.90;;;;;;6160904;23;20159;-90
2021/11/29 10:30:16;;;;;;;19.65;13.65;;;5.50;99.90;;;;;;6158130;23;20185;-91
2021/11/29 10:32:45;;;;;;;16.65;12.85;;;5.50;99.90;;;;;;6158054;23;20159;-90
2021/11/29 10:35:14;;;;;;;19.40;12.02;;;5.50;99.90;;;;;;6183917;23;20225;-90
2021/11/29 10:37:44;;;;;;;17.45;12.75;;;5.40;99.90;;;;;;6155667;23;20608;-90
2021/11/29 10:40:14;;;;;;;17.42;12.60;;;5.40;99.90;;;;;;6154103;23;20264;-91
2021/11/29 10:42:41;;;;;;;17.50;11.90;;;5.40;99.90;;;;;;6158211;23;20234;-90
2021/11/29 10:45:19;;;;;;;19.73;13.48;;;5.40;99.90;;;;;;6183618;23;20186;-91
2021/11/29 10:47:48;;;;;;;15.02;11.48;;;5.40;99.90;;;;;;6184877;23;20828;-89
2021/11/29 10:50:15;;;;;;;18.10;12.18;;;5.30;99.90;;;;;;6157264;23;20196;-90
2021/11/29 10:52:44;;;;;;;19.45;13.43;;;5.30;99.90;;;;;;6183707;23;20330;-91
2021/11/29 10:55:11;;;;;;;17.05;12.20;;;5.30;99.90;;;;;;6182570;23;20217;-90
2021/11/29 10:57:46;;;;;;;16.95;12.43;;;5.30;99.90;;;;;;6183020;23;20209;-89
2021/11/29 11:00:15;;;;;;;21.45;13.55;;;5.30;99.90;;;;;;6161492;23;20404;-91
2021/11/29 11:02:44;;;;;;;19.05;13.00;;;5.30;99.90;;;;;;6201759;23;20150;-90
2021/11/29 11:05:15;;;;;;;16.95;12.70;;;5.30;99.90;;;;;;6170218;23;20170;-90
2021/11/29 11:07:41;;;;;;;16.65;12.13;;;5.40;99.90;;;;;;6158064;23;20151;-92
2021/11/29 11:10:15;;;;;;;17.73;13.67;;;5.40;99.90;;;;;;6156072;23;20647;-90
2021/11/29 11:12:41;;;;;;;21.90;14.13;;;5.40;99.90;;;;;;6180695;23;20145;-91
2021/11/29 11:15:13;;;;;;;19.15;14.10;;;5.40;99.90;;;;;;6183511;23;20225;-93
2021/11/29 11:17:39;;;;;;;21.50;12.95;;;5.50;99.90;;;;;;6182303;23;20556;-90
2021/11/29 11:20:06;;;;;;;19.77;12.33;;;5.50;99.90;;;;;;6184572;23;20181;-92
2021/11/29 11:22:37;;;;;;;16.63;12.55;;;5.60;99.90;;;;;;6155685;23;20321;-91
2021/11/29 11:25:12;;;;;;;23.58;13.00;;;5.60;99.90;;;;;;6154884;23;20186;-92
2021/11/29 11:27:43;;;;;;;20.10;12.10;;;5.70;99.90;;;;;;6184254;23;20635;-92
2021/11/29 11:30:14;;;;;;;18.25;12.38;;;5.70;99.90;;;;;;6155569;23;20628;-90
2021/11/29 11:33:03;;;;;;;19.85;13.40;;;5.70;99.90;;;;;;6181567;23;20613;-92
2021/11/29 11:35:32;;;;;;;22.55;15.57;;;5.80;99.90;;;;;;6154886;23;20260;-90
2021/11/29 11:38:02;;;;;;;23.63;13.95;;;5.80;99.90;;;;;;6152173;23;20174;-91
2021/11/29 11:40:31;;;;;;;21.23;14.32;;;5.90;99.90;;;;;;6128360;23;20233;-92
2021/11/29 11:42:59;;;;;;;21.70;14.07;;;5.90;99.90;;;;;;6126970;23;20155;-90
2021/11/29 11:45:31;;;;;;;20.55;13.55;;;6.00;99.90;;;;;;6130254;23;20201;-91
2021/11/29 11:47:59;;;;;;;19.13;14.32;;;6.00;99.90;;;;;;6162588;23;20206;-91
2021/11/29 11:50:30;;;;;;;19.35;14.02;;;6.10;99.90;;;;;;6128702;23;20203;-93
2021/11/29 11:52:59;;;;;;;16.23;12.30;;;6.10;99.90;;;;;;6130742;23;20601;-90
2021/11/29 11:55:33;;;;;;;16.40;12.82;;;6.10;99.90;;;;;;6126557;23;20648;-91
2021/11/29 11:58:05;;;;;;;18.95;12.77;;;6.20;99.90;;;;;;6133163;23;20663;-91
2021/11/29 12:00:34;;;;;;;19.90;12.93;;;6.20;99.90;;;;;;6166005;23;21008;-89
2021/11/29 12:03:14;;;;;;;18.08;12.20;;;6.20;99.90;;;;;;6125920;23;20267;-90
2021/11/29 12:05:43;;;;;;;17.17;12.23;;;6.20;99.90;;;;;;6150494;23;20171;-91
2021/11/29 12:09:00;;;;;;;16.55;12.27;;;6.30;99.90;;;;;;6147241;23;20249;-93
2021/11/29 12:11:30;;;;;;;19.85;13.07;;;6.30;99.90;;;;;;6056766;23;20213;-91
2021/11/29 12:14:06;;;;;;;17.15;12.20;;;6.40;99.90;;;;;;6120471;23;20170;-91
2021/11/29 12:16:51;;;;;;;16.00;11.60;;;6.40;99.90;;;;;;6122006;23;20218;-91
2021/11/29 12:19:50;;;;;;;15.05;11.18;;;6.40;99.90;;;;;;6125021;23;20649;-90
2021/11/29 12:22:15;;;;;;;15.65;11.75;;;6.40;99.90;;;;;;6150182;23;20231;-92
2021/11/29 12:24:52;;;;;;;16.10;10.53;;;6.40;99.90;;;;;;6123307;23;20206;-91
2021/11/29 12:27:18;;;;;;;15.10;10.20;;;6.40;99.90;;;;;;6126329;23;20151;-90
2021/11/29 12:29:53;;;;;;;14.38;11.18;;;6.40;99.90;;;;;;6127296;23;20539;-91
2021/11/29 12:32:23;;;;;;;14.75;10.73;;;6.30;99.90;;;;;;6127559;23;20159;-90
2021/11/29 12:35:02;;;;;;;13.35;10.77;;;6.30;99.90;;;;;;6128942;23;20203;-89
2021/11/29 12:37:37;;;;;;;13.90;10.68;;;6.30;99.90;;;;;;6154305;23;20277;-92
2021/11/29 12:40:03;;;;;;;18.65;11.65;;;6.30;99.90;;;;;;6183836;23;20201;-90